Time;durP1;ratioP1;P1;durP2;ratioP2;P2;SDS_P1;SDS_P2;PMS_P1;PMS_P2;Temp;Humidity;BMP_temperature;BMP_pressure;BME280_temperature;BME280_humidity;BME280_pressure;Samples;Min_cycle;Max_cycle;Signal;HPM_P1;HPM_P2
2023/07/24 00:00:28;;;;;;;4.33;2.70;;;21.00;97.10;;;;;;5024311;28;21023;-68
2023/07/24 00:02:55;;;;;;;3.37;3.07;;;21.00;97.20;;;;;;5024482;28;20447;-69
2023/07/24 00:05:22;;;;;;;4.57;2.90;;;21.00;97.10;;;;;;5024169;28;20488;-69
2023/07/24 00:07:50;;;;;;;3.27;2.37;;;21.00;97.00;;;;;;5023012;28;20816;-69
2023/07/24 00:10:17;;;;;;;7.17;3.10;;;21.00;96.90;;;;;;5023963;28;20471;-69
2023/07/24 00:12:44;;;;;;;8.83;2.73;;;21.00;97.00;;;;;;5023268;28;20455;-68
2023/07/24 00:15:11;;;;;;;6.17;3.20;;;21.00;96.90;;;;;;5021921;28;20455;-69
2023/07/24 00:17:38;;;;;;;3.23;2.93;;;20.90;96.80;;;;;;5023160;28;20483;-69
2023/07/24 00:20:06;;;;;;;3.13;2.83;;;20.90;96.90;;;;;;5022798;28;20490;-68
2023/07/24 00:22:35;;;;;;;4.73;2.93;;;20.90;96.90;;;;;;5022898;28;20488;-69
2023/07/24 00:25:05;;;;;;;2.50;2.30;;;20.90;97.10;;;;;;5022363;28;20474;-69
2023/07/24 00:27:32;;;;;;;3.23;2.90;;;20.80;97.20;;;;;;5023852;28;20456;-69
2023/07/24 00:29:59;;;;;;;5.00;2.60;;;20.80;97.30;;;;;;5023103;28;20472;-68
2023/07/24 00:32:26;;;;;;;3.60;2.77;;;20.80;97.30;;;;;;5023146;28;20447;-69
2023/07/24 00:34:55;;;;;;;3.80;2.93;;;20.80;97.30;;;;;;5022524;28;20459;-69
2023/07/24 00:37:21;;;;;;;4.00;3.70;;;20.70;97.30;;;;;;5022363;28;20475;-69
2023/07/24 00:39:48;;;;;;;3.40;2.70;;;20.70;97.30;;;;;;5022381;28;20475;-68
2023/07/24 00:42:16;;;;;;;4.10;3.27;;;20.70;97.30;;;;;;5023142;28;20452;-69
2023/07/24 00:44:43;;;;;;;3.57;2.93;;;20.70;97.50;;;;;;5026186;28;20444;-69
2023/07/24 00:47:10;;;;;;;3.23;2.67;;;20.60;97.50;;;;;;5031298;28;21003;-69
2023/07/24 00:49:37;;;;;;;3.03;2.40;;;20.60;97.60;;;;;;5025297;28;20443;-68
2023/07/24 00:52:04;;;;;;;2.93;2.63;;;20.60;97.60;;;;;;5023390;28;20475;-68
2023/07/24 00:54:33;;;;;;;3.60;2.80;;;20.50;97.40;;;;;;5022611;28;20447;-69
2023/07/24 00:57:00;;;;;;;4.03;3.07;;;20.60;97.40;;;;;;5023349;28;20479;-69
2023/07/24 00:59:28;;;;;;;4.53;2.77;;;20.60;97.40;;;;;;5025498;28;20455;-68
2023/07/24 01:01:55;;;;;;;2.90;2.57;;;20.50;97.40;;;;;;5024710;28;20482;-69
2023/07/24 01:04:23;;;;;;;4.87;2.90;;;20.60;97.40;;;;;;5023052;28;20451;-68
2023/07/24 01:06:50;;;;;;;3.73;3.40;;;20.60;97.40;;;;;;5021906;28;20440;-69
2023/07/24 01:09:17;;;;;;;3.53;2.50;;;20.60;97.40;;;;;;5022994;28;20451;-69
2023/07/24 01:11:48;;;;;;;3.17;2.87;;;20.60;97.40;;;;;;5023188;28;20475;-68
2023/07/24 01:14:22;;;;;;;7.57;3.43;;;20.60;97.50;;;;;;5022958;28;20456;-69
2023/07/24 01:16:53;;;;;;;3.83;2.90;;;20.60;97.50;;;;;;5023647;28;20479;-69
2023/07/24 01:19:34;;;;;;;5.40;3.80;;;20.50;97.60;;;;;;5023157;28;20913;-68
2023/07/24 01:22:21;;;;;;;4.20;3.80;;;20.50;97.40;;;;;;5023281;28;20439;-69
2023/07/24 01:25:02;;;;;;;3.80;3.50;;;20.50;97.50;;;;;;5025121;28;20447;-69
2023/07/24 01:27:30;;;;;;;4.53;3.50;;;20.50;97.50;;;;;;5022713;28;20485;-68
2023/07/24 01:29:56;;;;;;;3.43;3.13;;;20.50;97.60;;;;;;5023195;28;20494;-68
2023/07/24 01:32:24;;;;;;;3.50;3.03;;;20.50;97.30;;;;;;5023219;28;20454;-69
2023/07/24 01:34:52;;;;;;;4.67;3.00;;;20.50;97.20;;;;;;5022302;28;20447;-69
2023/07/24 01:37:21;;;;;;;5.30;3.90;;;20.50;97.20;;;;;;5022972;28;20483;-69
2023/07/24 01:39:49;;;;;;;6.43;3.57;;;20.50;97.30;;;;;;5023486;28;20467;-70
2023/07/24 01:42:17;;;;;;;6.40;3.83;;;20.50;97.30;;;;;;5017303;28;20454;-68
2023/07/24 01:44:45;;;;;;;3.63;3.30;;;20.50;97.30;;;;;;5022312;28;20447;-69
2023/07/24 01:47:12;;;;;;;4.30;3.40;;;20.40;97.60;;;;;;5023120;28;20443;-69
2023/07/24 01:49:38;;;;;;;3.60;3.30;;;20.40;97.50;;;;;;5022904;28;20447;-68
2023/07/24 01:52:06;;;;;;;4.27;3.87;;;20.40;97.60;;;;;;5023269;28;20451;-68
2023/07/24 01:54:33;;;;;;;3.93;3.40;;;20.40;97.60;;;;;;5022431;28;20455;-69
2023/07/24 01:56:59;;;;;;;4.50;3.20;;;20.40;97.70;;;;;;5020962;28;20495;-69
2023/07/24 01:59:26;;;;;;;3.43;3.13;;;20.30;97.60;;;;;;5022017;28;20450;-69
2023/07/24 02:01:56;;;;;;;5.53;3.73;;;20.40;97.80;;;;;;5022408;28;20454;-68
2023/07/24 02:04:23;;;;;;;7.10;4.07;;;20.40;97.60;;;;;;5022317;28;20541;-69
2023/07/24 02:06:50;;;;;;;9.80;4.47;;;20.40;97.70;;;;;;5022295;28;20525;-69
2023/07/24 02:09:19;;;;;;;8.20;4.03;;;20.40;97.90;;;;;;5022297;28;20451;-69
2023/07/24 02:11:46;;;;;;;3.90;3.30;;;20.40;98.10;;;;;;5022059;28;20471;-68
2023/07/24 02:14:16;;;;;;;6.10;3.90;;;20.40;97.80;;;;;;5021253;28;20949;-69
2023/07/24 02:16:43;;;;;;;7.40;4.77;;;20.40;97.90;;;;;;5022224;28;20856;-69
2023/07/24 02:19:11;;;;;;;10.97;5.13;;;20.40;98.10;;;;;;5021941;28;20451;-69
2023/07/24 02:21:38;;;;;;;5.10;4.00;;;20.40;98.10;;;;;;5022234;28;20472;-68
2023/07/24 02:24:05;;;;;;;6.30;3.77;;;20.40;98.00;;;;;;5021715;28;20451;-69
2023/07/24 02:26:32;;;;;;;5.20;3.97;;;20.40;98.10;;;;;;5021969;28;20443;-68
2023/07/24 02:28:59;;;;;;;9.10;4.87;;;20.40;98.10;;;;;;5021098;28;20443;-69
2023/07/24 02:31:27;;;;;;;5.80;3.80;;;20.40;98.10;;;;;;5021030;28;20478;-68
2023/07/24 02:33:54;;;;;;;6.47;4.67;;;20.40;98.30;;;;;;5020752;28;20455;-67
2023/07/24 02:36:22;;;;;;;8.13;4.50;;;20.40;98.50;;;;;;5020620;28;20451;-69
2023/07/24 02:38:49;;;;;;;5.10;4.10;;;20.40;98.80;;;;;;5020540;28;20511;-69
2023/07/24 02:41:16;;;;;;;5.30;4.50;;;20.40;98.80;;;;;;5019476;28;20459;-68
2023/07/24 02:43:43;;;;;;;6.17;4.27;;;20.40;99.10;;;;;;5021253;28;20443;-68
2023/07/24 02:46:10;;;;;;;6.60;4.33;;;20.30;99.10;;;;;;5021223;28;20443;-68
2023/07/24 02:48:36;;;;;;;7.83;4.73;;;20.30;99.30;;;;;;5021481;28;20443;-68
2023/07/24 02:51:03;;;;;;;6.97;4.30;;;20.30;99.30;;;;;;5021383;28;20463;-67
2023/07/24 02:53:31;;;;;;;8.77;4.50;;;20.20;99.30;;;;;;5021118;28;20471;-68
2023/07/24 02:55:58;;;;;;;6.27;4.43;;;20.30;99.30;;;;;;5021996;28;20451;-68
2023/07/24 02:58:25;;;;;;;8.73;4.73;;;20.30;99.40;;;;;;5022081;28;20483;-69
2023/07/24 03:00:52;;;;;;;11.13;5.30;;;20.30;99.50;;;;;;5021785;28;20471;-68
2023/07/24 03:03:19;;;;;;;10.13;5.07;;;20.30;99.70;;;;;;5026641;28;20455;-67
2023/07/24 03:05:46;;;;;;;8.30;5.30;;;20.30;99.70;;;;;;5027918;28;20542;-69
2023/07/24 03:08:12;;;;;;;9.93;4.30;;;20.30;99.80;;;;;;5023048;28;20967;-69
2023/07/24 03:10:42;;;;;;;10.67;5.00;;;20.30;99.70;;;;;;5022283;28;20494;-68
2023/07/24 03:13:09;;;;;;;6.77;4.40;;;20.30;99.60;;;;;;5019396;28;20463;-69
2023/07/24 03:15:36;;;;;;;5.57;4.00;;;20.30;99.60;;;;;;5019979;28;20458;-68
2023/07/24 03:18:03;;;;;;;8.33;5.30;;;20.30;99.60;;;;;;5024707;28;20510;-68
2023/07/24 03:20:30;;;;;;;7.17;4.13;;;20.30;99.70;;;;;;5025200;28;20467;-67
2023/07/24 03:22:56;;;;;;;8.60;4.80;;;20.30;99.70;;;;;;5023249;28;20450;-68
2023/07/24 03:25:23;;;;;;;6.77;4.70;;;20.30;99.70;;;;;;5024727;28;20452;-68
2023/07/24 03:27:52;;;;;;;8.17;5.57;;;20.30;99.70;;;;;;5024772;28;20486;-69
2023/07/24 03:30:19;;;;;;;5.70;4.37;;;20.30;99.70;;;;;;5025046;28;20984;-68
2023/07/24 03:32:47;;;;;;;4.90;4.30;;;20.40;99.80;;;;;;5024732;28;20489;-68
2023/07/24 03:35:14;;;;;;;7.23;5.40;;;20.30;99.80;;;;;;5023898;28;20455;-68
2023/07/24 03:37:43;;;;;;;5.77;3.97;;;20.30;99.70;;;;;;5022972;28;20483;-69
2023/07/24 03:40:11;;;;;;;5.40;4.80;;;20.40;99.80;;;;;;5027613;28;20470;-68
2023/07/24 03:42:38;;;;;;;5.93;3.97;;;20.30;99.70;;;;;;5023493;28;20980;-68
2023/07/24 03:45:08;;;;;;;6.40;4.37;;;20.40;99.70;;;;;;5024769;28;20456;-68
2023/07/24 03:47:35;;;;;;;7.20;5.03;;;20.40;99.70;;;;;;5025550;28;20459;-69
2023/07/24 03:50:02;;;;;;;7.40;4.93;;;20.30;99.60;;;;;;5026272;28;20503;-68
2023/07/24 03:52:29;;;;;;;6.53;4.03;;;20.30;99.50;;;;;;5025102;28;20451;-68
2023/07/24 03:54:57;;;;;;;7.60;4.87;;;20.40;99.40;;;;;;5025075;28;20455;-69
2023/07/24 03:57:24;;;;;;;5.63;4.60;;;20.30;99.40;;;;;;5022035;28;20483;-68
2023/07/24 03:59:51;;;;;;;7.30;5.00;;;20.40;99.40;;;;;;5021426;28;20554;-67
2023/07/24 04:02:20;;;;;;;7.47;4.77;;;20.40;99.50;;;;;;5024433;28;20510;-68
2023/07/24 04:04:47;;;;;;;6.27;4.50;;;20.40;99.40;;;;;;5024059;28;20448;-68
2023/07/24 04:07:13;;;;;;;7.40;4.90;;;20.30;99.30;;;;;;5024053;28;20458;-68
2023/07/24 04:09:40;;;;;;;8.50;5.37;;;20.40;99.40;;;;;;5023863;28;20443;-67
2023/07/24 04:12:07;;;;;;;10.50;5.73;;;20.30;99.40;;;;;;5023768;28;20501;-68
2023/07/24 04:14:34;;;;;;;6.70;5.03;;;20.40;99.50;;;;;;5024094;28;20459;-68
2023/07/24 04:17:02;;;;;;;6.83;5.00;;;20.30;99.20;;;;;;5024012;28;20898;-68
2023/07/24 04:19:31;;;;;;;11.43;5.03;;;20.30;99.40;;;;;;5024582;28;20452;-67
2023/07/24 04:21:57;;;;;;;6.97;4.30;;;20.30;99.50;;;;;;5023812;28;20458;-68
2023/07/24 04:24:24;;;;;;;12.53;5.70;;;20.40;99.70;;;;;;5024217;28;20456;-68
2023/07/24 04:26:51;;;;;;;8.27;4.77;;;20.40;99.60;;;;;;5022989;28;20478;-68
2023/07/24 04:29:18;;;;;;;10.17;5.70;;;20.40;99.60;;;;;;5023063;28;20478;-68
2023/07/24 04:31:44;;;;;;;6.27;4.50;;;20.40;99.60;;;;;;5023285;28;20467;-68
2023/07/24 04:34:11;;;;;;;7.37;5.30;;;20.30;99.50;;;;;;5022759;28;20447;-68
2023/07/24 04:36:39;;;;;;;11.00;5.17;;;20.40;99.70;;;;;;5023194;28;20447;-69
2023/07/24 04:39:07;;;;;;;9.63;5.67;;;20.40;99.60;;;;;;5022880;28;20478;-69
2023/07/24 04:41:34;;;;;;;11.07;5.40;;;20.40;99.80;;;;;;5018850;28;20486;-67
2023/07/24 04:44:01;;;;;;;5.60;5.00;;;20.40;99.90;;;;;;5021891;28;20482;-68
2023/07/24 04:46:28;;;;;;;11.03;5.50;;;20.40;99.90;;;;;;5023347;28;20451;-69
2023/07/24 04:48:55;;;;;;;7.53;5.23;;;20.50;99.90;;;;;;5023244;28;20863;-69
2023/07/24 04:51:21;;;;;;;10.63;5.17;;;20.50;99.90;;;;;;5021697;28;20468;-68
2023/07/24 04:53:50;;;;;;;6.03;4.90;;;20.50;99.90;;;;;;5021960;28;20463;-69
2023/07/24 04:56:17;;;;;;;9.53;5.20;;;20.50;99.90;;;;;;5022744;28;20459;-69
2023/07/24 04:58:44;;;;;;;7.67;4.47;;;20.50;99.80;;;;;;5021882;28;20483;-67
2023/07/24 05:01:11;;;;;;;7.60;4.80;;;20.60;99.90;;;;;;5022446;28;20482;-69
2023/07/24 05:03:38;;;;;;;5.07;4.67;;;20.60;99.90;;;;;;5022224;28;20451;-67
2023/07/24 05:06:05;;;;;;;6.67;5.00;;;20.60;99.90;;;;;;5022518;28;20455;-68
2023/07/24 05:08:31;;;;;;;5.20;4.70;;;20.60;99.90;;;;;;5023103;28;20455;-68
2023/07/24 05:11:00;;;;;;;5.47;4.87;;;20.60;99.80;;;;;;5022552;28;20463;-68
2023/07/24 05:13:27;;;;;;;7.57;5.03;;;20.60;99.80;;;;;;5020851;28;20463;-67
2023/07/24 05:15:54;;;;;;;10.10;5.60;;;20.60;99.70;;;;;;5024162;28;20443;-68
2023/07/24 05:18:20;;;;;;;7.40;5.00;;;20.70;99.70;;;;;;5028789;28;20904;-68
2023/07/24 05:20:51;;;;;;;6.80;4.57;;;20.70;99.60;;;;;;5026439;28;20467;-67
2023/07/24 05:23:19;;;;;;;7.33;4.50;;;20.70;99.40;;;;;;5024084;28;20454;-68
2023/07/24 05:25:45;;;;;;;7.77;5.00;;;20.80;99.10;;;;;;5022034;28;20467;-68
2023/07/24 05:28:13;;;;;;;5.80;4.87;;;20.80;99.40;;;;;;5022826;28;20478;-69
2023/07/24 05:30:40;;;;;;;9.70;4.70;;;20.90;99.20;;;;;;5022962;28;20478;-68
2023/07/24 05:33:07;;;;;;;8.10;5.17;;;20.80;99.10;;;;;;5022313;28;20448;-68
2023/07/24 05:35:34;;;;;;;10.20;5.90;;;20.90;98.90;;;;;;5021297;28;20455;-68
2023/07/24 05:38:01;;;;;;;4.87;4.10;;;20.90;99.00;;;;;;5022218;28;20490;-68
2023/07/24 05:40:28;;;;;;;6.00;5.40;;;20.90;98.90;;;;;;5021893;28;20478;-68
2023/07/24 05:42:55;;;;;;;8.40;5.43;;;20.90;98.60;;;;;;5022067;28;20451;-68
2023/07/24 05:45:23;;;;;;;12.43;5.37;;;20.90;98.40;;;;;;5020548;28;20478;-68
2023/07/24 05:47:50;;;;;;;7.80;4.87;;;21.00;98.40;;;;;;5020880;28;20513;-68
2023/07/24 05:50:17;;;;;;;6.40;4.90;;;21.00;98.30;;;;;;5021600;28;20467;-67
2023/07/24 05:52:44;;;;;;;7.80;4.23;;;20.90;98.40;;;;;;5024973;28;20451;-68
2023/07/24 05:55:13;;;;;;;5.97;4.60;;;20.90;98.00;;;;;;5023063;28;20455;-68
2023/07/24 05:57:39;;;;;;;4.80;4.30;;;20.80;98.00;;;;;;5021435;28;20491;-69
2023/07/24 06:00:08;;;;;;;7.67;5.00;;;20.80;97.90;;;;;;5021624;28;20467;-68
2023/07/24 06:02:36;;;;;;;7.03;4.77;;;20.80;98.20;;;;;;5021184;28;20455;-67
2023/07/24 06:05:03;;;;;;;5.70;4.70;;;20.80;98.10;;;;;;5022866;28;20448;-69
2023/07/24 06:07:31;;;;;;;5.53;4.70;;;20.80;97.90;;;;;;5022127;28;20455;-68
2023/07/24 06:09:58;;;;;;;7.10;4.70;;;20.80;97.70;;;;;;5018956;28;20472;-67
2023/07/24 06:12:24;;;;;;;4.83;4.33;;;20.90;97.90;;;;;;5020937;28;20451;-67
2023/07/24 06:14:51;;;;;;;7.27;4.47;;;20.90;97.80;;;;;;5022564;28;20459;-68
2023/07/24 06:17:18;;;;;;;4.67;4.13;;;21.00;97.90;;;;;;5021449;28;20549;-68
2023/07/24 06:19:47;;;;;;;4.27;3.87;;;21.10;97.50;;;;;;5020214;28;20853;-67
2023/07/24 06:22:14;;;;;;;4.97;3.43;;;21.10;97.60;;;;;;5022010;28;20515;-68
2023/07/24 06:24:41;;;;;;;4.53;3.80;;;21.10;97.40;;;;;;5021726;28;20501;-68
2023/07/24 06:27:07;;;;;;;5.60;3.93;;;21.10;97.20;;;;;;5021685;28;20447;-69
2023/07/24 06:29:35;;;;;;;5.33;3.37;;;21.20;97.10;;;;;;5021482;28;20451;-67
2023/07/24 06:32:02;;;;;;;5.40;3.83;;;21.20;97.00;;;;;;5021727;28;20936;-69
2023/07/24 06:34:29;;;;;;;4.07;3.67;;;21.30;96.80;;;;;;5021605;28;20521;-67
2023/07/24 06:36:59;;;;;;;4.83;3.37;;;21.30;96.50;;;;;;5021569;28;20462;-68
2023/07/24 06:39:26;;;;;;;4.70;3.40;;;21.30;96.40;;;;;;5023529;28;20487;-68
2023/07/24 06:41:53;;;;;;;6.87;3.57;;;21.30;96.00;;;;;;5022447;28;20455;-68
2023/07/24 06:44:19;;;;;;;3.40;2.90;;;21.40;96.20;;;;;;5022142;28;20455;-67
2023/07/24 06:46:49;;;;;;;3.33;3.03;;;21.20;95.30;;;;;;5021944;28;20843;-68
2023/07/24 06:49:16;;;;;;;5.80;3.93;;;21.30;96.20;;;;;;5019657;28;20834;-68
2023/07/24 06:51:43;;;;;;;3.40;3.10;;;21.40;96.30;;;;;;5022181;28;20470;-69
2023/07/24 06:54:11;;;;;;;4.80;3.60;;;21.50;96.00;;;;;;5025081;28;20983;-69
2023/07/24 06:56:38;;;;;;;3.50;3.20;;;21.60;95.10;;;;;;5024663;28;20451;-69
2023/07/24 06:59:05;;;;;;;3.63;3.33;;;21.60;95.20;;;;;;5025682;28;20475;-69
2023/07/24 07:01:34;;;;;;;4.77;3.20;;;21.70;94.60;;;;;;5025237;28;20462;-69
2023/07/24 07:04:00;;;;;;;4.00;3.60;;;21.70;94.50;;;;;;5007650;28;20490;-68
2023/07/24 07:06:27;;;;;;;7.20;3.10;;;21.70;94.10;;;;;;5024800;28;20451;-69
2023/07/24 07:08:55;;;;;;;5.60;3.50;;;21.70;94.30;;;;;;5024869;28;20452;-69
2023/07/24 07:11:25;;;;;;;4.20;3.27;;;21.90;94.10;;;;;;5025821;28;20463;-68
2023/07/24 07:13:51;;;;;;;5.30;3.20;;;21.80;93.10;;;;;;5024316;28;20836;-69
2023/07/24 07:16:18;;;;;;;5.37;3.67;;;21.80;93.30;;;;;;5025392;28;20501;-69
2023/07/24 07:18:48;;;;;;;3.60;2.80;;;21.80;93.70;;;;;;5023788;28;20479;-69
2023/07/24 07:21:15;;;;;;;4.80;2.70;;;21.90;93.10;;;;;;5024882;28;20478;-69
2023/07/24 07:23:42;;;;;;;3.50;2.97;;;22.00;92.50;;;;;;5025217;28;20447;-69
2023/07/24 07:26:08;;;;;;;4.07;2.70;;;22.00;92.20;;;;;;5025850;28;20447;-69
2023/07/24 07:28:37;;;;;;;3.37;2.80;;;22.00;92.40;;;;;;5026339;28;20586;-69
2023/07/24 07:31:04;;;;;;;4.13;3.30;;;21.80;92.50;;;;;;5027224;28;20467;-68
2023/07/24 07:33:31;;;;;;;4.27;3.50;;;21.90;92.90;;;;;;5026509;28;20455;-68
2023/07/24 07:35:59;;;;;;;4.33;3.70;;;21.90;92.80;;;;;;5025591;28;21010;-69
2023/07/24 07:38:26;;;;;;;3.73;3.10;;;21.80;92.80;;;;;;5024473;28;20476;-69
2023/07/24 07:40:52;;;;;;;5.27;3.40;;;21.80;92.40;;;;;;5025775;28;20475;-69
2023/07/24 07:43:19;;;;;;;3.00;2.70;;;21.80;92.40;;;;;;5025000;28;20461;-69
2023/07/24 07:45:48;;;;;;;5.40;2.83;;;21.80;92.10;;;;;;5024509;28;20546;-69
2023/07/24 07:48:15;;;;;;;3.07;2.87;;;21.80;92.20;;;;;;5024419;28;20513;-68
2023/07/24 07:50:42;;;;;;;3.97;3.57;;;22.00;92.30;;;;;;5023744;28;20507;-68
2023/07/24 07:53:08;;;;;;;4.77;3.20;;;22.10;92.00;;;;;;5025778;28;20458;-69
2023/07/24 07:55:35;;;;;;;3.27;2.93;;;22.10;91.40;;;;;;5025126;28;20455;-69
2023/07/24 07:58:02;;;;;;;4.17;3.07;;;22.10;91.10;;;;;;5025300;28;20459;-68
2023/07/24 08:00:29;;;;;;;3.20;2.90;;;22.10;91.50;;;;;;5024419;28;20987;-69
2023/07/24 08:02:57;;;;;;;3.70;2.77;;;22.10;91.00;;;;;;5025183;28;20478;-69
2023/07/24 08:05:26;;;;;;;3.40;3.10;;;22.10;90.90;;;;;;5026559;28;20448;-69
2023/07/24 08:07:53;;;;;;;4.80;3.27;;;22.10;91.50;;;;;;5028187;28;20462;-69
2023/07/24 08:10:20;;;;;;;2.60;2.40;;;22.10;90.80;;;;;;5025290;28;20479;-68
2023/07/24 08:12:46;;;;;;;4.17;3.20;;;22.00;90.70;;;;;;5026990;28;20448;-68
2023/07/24 08:15:13;;;;;;;5.50;3.97;;;22.10;91.20;;;;;;5027248;28;20439;-69
2023/07/24 08:17:40;;;;;;;2.83;2.63;;;22.20;91.60;;;;;;5026812;28;20476;-69
2023/07/24 08:20:09;;;;;;;4.30;3.40;;;22.40;91.20;;;;;;5026382;28;20549;-68
2023/07/24 08:22:36;;;;;;;3.70;2.80;;;22.60;90.60;;;;;;5026521;28;20455;-69
2023/07/24 08:25:03;;;;;;;5.43;3.63;;;22.80;90.50;;;;;;5022193;28;20455;-69
2023/07/24 08:27:32;;;;;;;4.97;3.20;;;22.90;89.90;;;;;;5023010;28;20454;-69
2023/07/24 08:29:58;;;;;;;3.90;3.50;;;23.10;88.50;;;;;;5024899;28;20471;-68
2023/07/24 08:32:33;;;;;;;3.50;2.97;;;23.10;86.90;;;;;;5024801;28;20455;-68
2023/07/24 08:34:59;;;;;;;4.87;3.87;;;23.00;87.60;;;;;;5023983;28;20426;-69
2023/07/24 08:37:27;;;;;;;4.53;2.83;;;23.00;87.80;;;;;;5024251;28;20454;-69
2023/07/24 08:39:54;;;;;;;3.67;3.13;;;23.00;88.50;;;;;;5022886;28;20484;-68
2023/07/24 08:42:22;;;;;;;6.43;3.10;;;23.20;86.80;;;;;;5023801;28;20451;-68
2023/07/24 08:44:49;;;;;;;5.50;3.00;;;23.30;87.40;;;;;;5022537;28;20452;-69
2023/07/24 08:47:16;;;;;;;3.23;2.90;;;23.30;86.20;;;;;;5024410;28;20474;-69
2023/07/24 08:49:49;;;;;;;4.33;3.10;;;23.20;86.70;;;;;;5024010;28;20506;-68
2023/07/24 08:52:16;;;;;;;5.97;4.00;;;23.20;86.80;;;;;;5023989;28;20437;-69
2023/07/24 08:54:46;;;;;;;3.53;3.23;;;23.20;86.30;;;;;;5022902;28;20455;-69
2023/07/24 08:57:17;;;;;;;3.73;3.43;;;23.00;85.90;;;;;;5021934;28;20452;-69
2023/07/24 08:59:44;;;;;;;5.10;3.80;;;23.00;87.60;;;;;;5022295;28;20467;-67
2023/07/24 09:02:23;;;;;;;3.47;3.00;;;22.80;86.40;;;;;;5022520;28;20447;-69
2023/07/24 09:04:50;;;;;;;4.53;3.37;;;22.80;87.90;;;;;;5022630;28;20916;-68
2023/07/24 09:07:17;;;;;;;4.93;3.23;;;22.70;87.30;;;;;;5022682;28;20451;-69
2023/07/24 09:09:49;;;;;;;3.63;3.30;;;22.70;88.10;;;;;;5022994;28;20443;-68
2023/07/24 09:12:20;;;;;;;5.27;4.00;;;22.60;89.00;;;;;;5022592;28;20474;-69
2023/07/24 09:14:47;;;;;;;4.10;3.57;;;22.50;89.20;;;;;;5021987;28;20483;-69
2023/07/24 09:17:14;;;;;;;4.63;3.70;;;22.50;90.10;;;;;;5021759;28;20452;-69
2023/07/24 09:19:45;;;;;;;4.20;3.43;;;22.50;90.10;;;;;;5022432;28;20518;-68
2023/07/24 09:22:13;;;;;;;4.03;3.30;;;22.70;90.30;;;;;;5022143;28;20442;-68
2023/07/24 09:24:51;;;;;;;7.10;3.60;;;22.90;90.30;;;;;;5022994;28;20535;-69
2023/07/24 09:27:18;;;;;;;3.60;3.30;;;23.30;89.10;;;;;;5026316;28;20447;-69
2023/07/24 09:29:46;;;;;;;5.23;3.40;;;23.60;87.50;;;;;;5024600;28;20447;-68
2023/07/24 09:32:20;;;;;;;3.30;2.73;;;23.90;84.40;;;;;;5019813;28;20451;-68
2023/07/24 09:34:47;;;;;;;3.30;3.00;;;24.30;83.50;;;;;;5021693;28;20447;-68
2023/07/24 09:37:24;;;;;;;3.77;2.77;;;24.70;80.10;;;;;;5021066;28;20509;-69
2023/07/24 09:39:54;;;;;;;3.30;3.00;;;25.30;77.50;;;;;;5021309;28;20525;-69
2023/07/24 09:42:31;;;;;;;3.80;2.77;;;25.60;74.00;;;;;;5022678;28;20458;-69
2023/07/24 09:44:57;;;;;;;4.30;2.57;;;25.90;73.00;;;;;;5022291;28;20491;-67
2023/07/24 09:47:24;;;;;;;5.67;2.60;;;26.00;70.20;;;;;;5025164;28;20983;-67
2023/07/24 09:49:54;;;;;;;2.80;2.60;;;26.10;69.30;;;;;;5029074;28;20518;-67
2023/07/24 09:52:21;;;;;;;2.60;2.40;;;26.20;68.80;;;;;;5025078;28;20436;-67
2023/07/24 09:55:00;;;;;;;2.87;2.20;;;26.20;68.70;;;;;;5023074;28;20440;-68
2023/07/24 09:57:29;;;;;;;5.97;2.77;;;26.30;69.20;;;;;;5022257;28;20454;-68
2023/07/24 09:59:57;;;;;;;3.20;2.53;;;26.40;67.50;;;;;;5022380;28;20487;-66
2023/07/24 10:02:26;;;;;;;2.33;2.13;;;26.20;67.40;;;;;;5021811;28;20460;-67
2023/07/24 10:04:54;;;;;;;2.23;2.13;;;26.10;68.80;;;;;;5021942;28;20457;-68
2023/07/24 10:07:22;;;;;;;2.30;1.97;;;26.20;67.60;;;;;;5021871;28;20465;-68
2023/07/24 10:09:50;;;;;;;2.70;2.50;;;26.10;66.40;;;;;;5021462;28;20472;-67
2023/07/24 10:12:19;;;;;;;3.77;2.50;;;26.00;67.10;;;;;;5020266;28;20447;-67
2023/07/24 10:14:47;;;;;;;3.10;2.57;;;26.00;68.20;;;;;;5022791;28;20459;-68
2023/07/24 10:17:14;;;;;;;3.30;2.60;;;25.90;68.40;;;;;;5022113;28;20937;-68
2023/07/24 10:19:42;;;;;;;4.20;2.23;;;25.70;68.60;;;;;;5021509;28;20996;-68
2023/07/24 10:22:10;;;;;;;2.27;2.07;;;25.50;68.50;;;;;;5021088;28;20825;-67
2023/07/24 10:24:37;;;;;;;5.30;2.00;;;25.60;71.00;;;;;;5021770;28;20451;-67
2023/07/24 10:27:05;;;;;;;2.67;2.40;;;25.60;73.10;;;;;;5024480;28;20458;-67
2023/07/24 10:29:37;;;;;;;1.90;1.70;;;25.50;73.40;;;;;;5026549;28;20448;-66
2023/07/24 10:32:05;;;;;;;4.20;2.47;;;25.70;75.60;;;;;;5026255;28;20459;-68
2023/07/24 10:34:38;;;;;;;2.63;2.43;;;26.20;76.50;;;;;;5026211;28;20443;-68
2023/07/24 10:37:09;;;;;;;2.63;2.27;;;26.50;70.90;;;;;;5027374;28;20494;-68
2023/07/24 10:39:41;;;;;;;3.07;2.80;;;27.00;70.20;;;;;;5026455;28;20503;-67
2023/07/24 10:42:09;;;;;;;2.20;2.00;;;27.20;66.30;;;;;;5025897;28;20478;-67
2023/07/24 10:44:41;;;;;;;3.40;2.20;;;27.10;65.40;;;;;;5019921;28;20479;-68
2023/07/24 10:47:08;;;;;;;2.37;2.17;;;27.30;64.40;;;;;;5024579;28;20443;-68
2023/07/24 10:49:35;;;;;;;2.27;2.07;;;27.50;63.20;;;;;;5025175;28;20450;-67
2023/07/24 10:52:02;;;;;;;2.17;1.97;;;27.70;63.80;;;;;;5024630;28;20509;-68
2023/07/24 10:54:29;;;;;;;2.07;1.97;;;28.20;62.70;;;;;;5025194;28;20458;-68
2023/07/24 10:57:00;;;;;;;3.00;2.23;;;28.50;59.50;;;;;;5025016;28;20455;-67
2023/07/24 10:59:38;;;;;;;2.43;2.23;;;28.40;59.30;;;;;;5024011;28;20522;-67
2023/07/24 11:02:05;;;;;;;3.87;2.30;;;28.30;59.40;;;;;;5024683;28;20431;-69
2023/07/24 11:04:34;;;;;;;2.30;2.10;;;28.00;59.60;;;;;;5025406;28;20447;-68
2023/07/24 11:07:02;;;;;;;3.23;2.23;;;27.70;61.40;;;;;;5024145;28;20458;-69
2023/07/24 11:09:41;;;;;;;2.70;2.50;;;27.30;61.40;;;;;;5021423;28;20478;-67
2023/07/24 11:12:14;;;;;;;3.10;2.83;;;27.00;63.80;;;;;;5019919;28;20435;-68
2023/07/24 11:14:49;;;;;;;5.17;2.90;;;26.60;65.10;;;;;;5019390;28;20451;-69
2023/07/24 11:17:16;;;;;;;4.47;2.80;;;26.30;67.30;;;;;;5020649;28;20451;-67
2023/07/24 11:19:43;;;;;;;5.10;3.63;;;25.90;69.70;;;;;;5020210;28;20483;-68
2023/07/24 11:22:10;;;;;;;11.20;3.57;;;25.60;73.70;;;;;;5020196;28;20937;-68
2023/07/24 11:24:46;;;;;;;6.03;3.60;;;25.20;79.20;;;;;;5020542;28;20497;-67
2023/07/24 11:27:14;;;;;;;6.93;3.00;;;24.50;82.10;;;;;;5021788;28;20434;-68
2023/07/24 11:29:41;;;;;;;5.53;2.60;;;24.00;85.00;;;;;;5020976;28;20519;-66
2023/07/24 11:32:10;;;;;;;11.47;4.73;;;23.50;84.90;;;;;;5021088;28;20448;-65
2023/07/24 11:34:37;;;;;;;7.97;2.93;;;23.00;86.30;;;;;;5021629;28;20530;-65
2023/07/24 11:37:05;;;;;;;5.83;2.93;;;22.60;87.30;;;;;;5020644;28;20494;-66
2023/07/24 11:39:32;;;;;;;3.20;2.27;;;22.30;89.80;;;;;;5021055;28;20493;-65
2023/07/24 11:42:01;;;;;;;4.23;2.00;;;22.10;90.60;;;;;;5021948;28;20453;-67
2023/07/24 11:44:29;;;;;;;3.50;1.70;;;22.00;91.20;;;;;;5023209;28;20863;-68
2023/07/24 11:47:02;;;;;;;2.37;1.60;;;22.10;91.70;;;;;;5023914;28;20455;-67
2023/07/24 11:49:31;;;;;;;4.47;1.60;;;22.40;92.00;;;;;;5023858;28;20859;-66
2023/07/24 11:52:02;;;;;;;4.70;1.37;;;22.80;92.30;;;;;;5023422;28;20451;-67
2023/07/24 11:54:30;;;;;;;2.13;1.60;;;23.20;91.40;;;;;;5022107;28;20458;-68
2023/07/24 11:56:57;;;;;;;2.27;1.60;;;23.30;91.00;;;;;;5022503;28;20455;-68
2023/07/24 11:59:25;;;;;;;3.70;1.50;;;23.30;91.10;;;;;;5021005;28;20452;-67
2023/07/24 12:01:52;;;;;;;2.27;1.60;;;23.00;90.80;;;;;;5021566;28;20451;-67
2023/07/24 12:04:19;;;;;;;3.33;1.90;;;22.90;91.50;;;;;;5027997;28;20451;-68
2023/07/24 12:06:48;;;;;;;3.53;2.13;;;22.70;91.90;;;;;;5031453;28;20475;-68
2023/07/24 12:09:14;;;;;;;2.63;2.03;;;22.50;91.80;;;;;;5026431;28;20456;-68
2023/07/24 12:11:42;;;;;;;1.57;1.47;;;22.40;92.50;;;;;;5025595;28;20476;-67
2023/07/24 12:14:09;;;;;;;1.70;1.60;;;22.20;91.20;;;;;;4982849;28;1198042;-68
2023/07/24 12:16:37;;;;;;;1.70;1.60;;;22.30;92.60;;;;;;5024729;28;20211;-68
2023/07/24 12:19:03;;;;;;;2.83;1.20;;;23.10;93.40;;;;;;5025286;28;20478;-68
2023/07/24 12:21:30;;;;;;;2.10;1.50;;;24.60;89.90;;;;;;5024316;28;20491;-67
2023/07/24 12:23:59;;;;;;;1.50;1.40;;;26.00;84.30;;;;;;5024569;28;20452;-68
2023/07/24 12:26:27;;;;;;;1.43;1.20;;;27.50;74.60;;;;;;5024303;28;20448;-68
2023/07/24 12:28:54;;;;;;;2.47;1.07;;;28.60;67.20;;;;;;5024239;28;20523;-68
2023/07/24 12:31:21;;;;;;;1.30;1.20;;;29.60;57.90;;;;;;5023875;28;20867;-68
2023/07/24 12:33:48;;;;;;;1.30;1.20;;;30.70;56.30;;;;;;5015627;28;20457;-69
2023/07/24 12:36:15;;;;;;;3.10;1.47;;;32.00;50.30;;;;;;5015243;28;20940;-69
2023/07/24 12:38:41;;;;;;;1.87;1.30;;;32.80;47.30;;;;;;5015074;28;20799;-69
2023/07/24 12:41:09;;;;;;;1.50;1.40;;;33.70;45.20;;;;;;5015121;28;20489;-69
2023/07/24 12:43:36;;;;;;;1.63;1.53;;;34.40;42.70;;;;;;5016538;28;20475;-69
2023/07/24 12:46:03;;;;;;;1.90;1.50;;;35.10;41.90;;;;;;5016780;28;20447;-70
2023/07/24 12:48:31;;;;;;;1.50;1.37;;;35.40;39.90;;;;;;5016305;28;20449;-69